Time;durP1;ratioP1;P1;durP2;ratioP2;P2;SDS_P1;SDS_P2;PMS_P1;PMS_P2;Temp;Humidity;BMP_temperature;BMP_pressure;BME280_temperature;BME280_humidity;BME280_pressure;Samples;Min_cycle;Max_cycle;Signal;HPM_P1;HPM_P2
2023/07/17 00:01:42;;;;;;;12.65;9.35;;;22.00;99.90;;;;;;5075195;28;20020;-62
2023/07/17 00:04:08;;;;;;;10.90;9.20;;;22.00;99.90;;;;;;5075193;28;20035;-62
2023/07/17 00:06:34;;;;;;;15.20;10.23;;;21.90;99.90;;;;;;5075360;28;20435;-62
2023/07/17 00:09:00;;;;;;;13.35;9.48;;;21.90;99.90;;;;;;5075365;28;20024;-62
2023/07/17 00:11:25;;;;;;;14.70;10.07;;;21.90;99.90;;;;;;5074958;28;20054;-62
2023/07/17 00:13:51;;;;;;;16.83;9.82;;;21.90;99.90;;;;;;5075502;28;20112;-63
2023/07/17 00:16:19;;;;;;;12.90;9.68;;;21.80;99.90;;;;;;5057302;28;20033;-62
2023/07/17 00:18:45;;;;;;;11.77;9.40;;;21.80;99.90;;;;;;5075076;28;20032;-62
2023/07/17 00:21:11;;;;;;;13.80;9.55;;;21.80;99.90;;;;;;5075191;28;20422;-62
2023/07/17 00:23:37;;;;;;;15.88;9.50;;;21.70;99.90;;;;;;5075006;28;20082;-62
2023/07/17 00:26:04;;;;;;;12.98;9.40;;;21.70;99.90;;;;;;5075042;28;20032;-62
2023/07/17 00:28:30;;;;;;;10.32;8.77;;;21.70;99.90;;;;;;5075040;28;20033;-62
2023/07/17 00:30:55;;;;;;;14.55;9.90;;;21.60;99.90;;;;;;5057103;28;20563;-62
2023/07/17 00:33:21;;;;;;;13.68;10.50;;;21.60;99.90;;;;;;5057031;28;20041;-62
2023/07/17 00:35:47;;;;;;;17.65;10.57;;;21.60;99.90;;;;;;5056899;28;20032;-62
2023/07/17 00:38:13;;;;;;;13.65;10.65;;;21.50;99.90;;;;;;5074949;28;20103;-62
2023/07/17 00:40:40;;;;;;;14.95;10.55;;;21.50;99.90;;;;;;5074805;28;20075;-62
2023/07/17 00:43:12;;;;;;;16.27;10.35;;;21.50;99.90;;;;;;5056775;28;20036;-62
2023/07/17 00:45:41;;;;;;;12.60;10.13;;;21.50;99.90;;;;;;5056840;28;20119;-62
2023/07/17 00:48:08;;;;;;;14.13;9.98;;;21.50;99.90;;;;;;5074660;28;20078;-62
2023/07/17 00:50:34;;;;;;;11.85;9.77;;;21.50;99.90;;;;;;5074709;28;20104;-62
2023/07/17 00:53:02;;;;;;;12.30;10.07;;;21.50;99.90;;;;;;5074822;28;20044;-62
2023/07/17 00:55:28;;;;;;;13.02;9.65;;;21.50;99.90;;;;;;5051081;28;20106;-62
2023/07/17 00:57:56;;;;;;;13.65;10.20;;;21.50;99.90;;;;;;5054421;28;20049;-62
2023/07/17 01:00:23;;;;;;;14.02;9.95;;;21.40;99.90;;;;;;5036626;28;20128;-62
2023/07/17 01:02:54;;;;;;;13.40;9.65;;;21.40;99.90;;;;;;5054393;28;20108;-62
2023/07/17 01:05:20;;;;;;;12.52;9.98;;;21.40;99.90;;;;;;5020054;28;20029;-62
2023/07/17 01:07:46;;;;;;;12.93;10.02;;;21.40;99.90;;;;;;5036458;28;20028;-61
2023/07/17 01:10:12;;;;;;;12.95;9.55;;;21.30;99.90;;;;;;5054266;28;20480;-62
2023/07/17 01:12:38;;;;;;;16.45;10.05;;;21.40;99.90;;;;;;5054249;28;20033;-62
2023/07/17 01:15:06;;;;;;;12.70;9.70;;;21.40;99.90;;;;;;5054164;28;20518;-62
2023/07/17 01:17:32;;;;;;;13.10;9.95;;;21.30;99.90;;;;;;5054330;28;20021;-62
2023/07/17 01:19:59;;;;;;;12.38;9.85;;;21.30;99.90;;;;;;5036437;28;20045;-62
2023/07/17 01:22:33;;;;;;;15.35;10.10;;;21.30;99.90;;;;;;5036269;28;20041;-62
2023/07/17 01:24:59;;;;;;;13.75;10.35;;;21.30;99.90;;;;;;5054247;28;20029;-62
2023/07/17 01:27:25;;;;;;;16.13;9.73;;;21.30;99.90;;;;;;5054249;28;20117;-62
2023/07/17 01:29:51;;;;;;;14.38;10.23;;;21.20;99.90;;;;;;5054171;28;20033;-62
2023/07/17 01:32:20;;;;;;;13.95;9.80;;;21.20;99.90;;;;;;5054685;28;20090;-62
2023/07/17 01:34:46;;;;;;;18.52;11.30;;;21.20;99.90;;;;;;5036445;28;20044;-62
2023/07/17 01:37:12;;;;;;;14.98;10.27;;;21.20;99.90;;;;;;5036307;28;20108;-62
2023/07/17 01:39:38;;;;;;;14.68;11.10;;;21.20;99.90;;;;;;5019723;28;20453;-62
2023/07/17 01:42:04;;;;;;;12.93;10.55;;;21.20;99.90;;;;;;5054021;28;20351;-62
2023/07/17 01:44:31;;;;;;;11.95;10.65;;;21.20;99.90;;;;;;5054091;28;20017;-63
2023/07/17 01:46:58;;;;;;;14.07;10.65;;;21.10;99.90;;;;;;5039231;28;20046;-62
2023/07/17 01:49:24;;;;;;;14.13;10.18;;;21.10;99.90;;;;;;5040132;28;20060;-61
2023/07/17 01:51:50;;;;;;;12.82;9.50;;;21.10;99.90;;;;;;5057922;28;20150;-62
2023/07/17 01:54:15;;;;;;;13.23;10.48;;;21.00;99.90;;;;;;5040046;28;20364;-62
2023/07/17 01:56:42;;;;;;;16.40;9.82;;;21.00;99.90;;;;;;5055801;28;20024;-62
2023/07/17 01:59:08;;;;;;;11.55;9.23;;;21.00;99.90;;;;;;5059601;28;20055;-62
2023/07/17 02:01:34;;;;;;;16.08;10.70;;;21.00;99.90;;;;;;5059858;28;20025;-62
2023/07/17 02:04:01;;;;;;;15.40;11.15;;;21.00;99.90;;;;;;5077832;28;20377;-62
2023/07/17 02:06:28;;;;;;;17.13;10.13;;;21.00;99.90;;;;;;5059793;28;20033;-62
2023/07/17 02:08:55;;;;;;;14.77;10.10;;;20.90;99.90;;;;;;5059593;28;20101;-62
2023/07/17 02:11:26;;;;;;;12.75;9.75;;;20.90;99.90;;;;;;5059547;28;20072;-62
2023/07/17 02:13:53;;;;;;;14.20;10.07;;;20.90;99.90;;;;;;5059423;28;20028;-62
2023/07/17 02:16:19;;;;;;;13.55;9.65;;;21.00;99.90;;;;;;5059439;28;20029;-61
2023/07/17 02:18:45;;;;;;;15.18;10.50;;;20.90;99.90;;;;;;5077573;28;20520;-62
2023/07/17 02:21:11;;;;;;;13.70;10.32;;;20.90;99.90;;;;;;5059553;28;20031;-62
2023/07/17 02:23:37;;;;;;;15.68;10.30;;;20.80;99.90;;;;;;5077282;28;20020;-62
2023/07/17 02:26:06;;;;;;;17.73;11.02;;;20.70;99.90;;;;;;5059407;28;20028;-62
2023/07/17 02:28:32;;;;;;;14.02;10.85;;;20.70;99.90;;;;;;5059464;28;20390;-62
2023/07/17 02:30:58;;;;;;;16.08;11.05;;;20.70;99.90;;;;;;5077457;28;20382;-62
2023/07/17 02:33:24;;;;;;;14.98;10.75;;;20.60;99.90;;;;;;5077288;28;20017;-63
2023/07/17 02:35:51;;;;;;;16.35;10.23;;;20.60;99.90;;;;;;5077036;28;20542;-62
2023/07/17 02:38:17;;;;;;;14.70;10.60;;;20.50;99.90;;;;;;5077120;28;20025;-62
2023/07/17 02:40:42;;;;;;;14.35;10.32;;;20.60;99.90;;;;;;5059098;28;20390;-62
2023/07/17 02:43:09;;;;;;;13.60;10.60;;;20.50;99.90;;;;;;5077179;28;20024;-62
2023/07/17 02:45:37;;;;;;;15.40;11.30;;;20.50;99.90;;;;;;5059096;28;20049;-62
2023/07/17 02:48:04;;;;;;;14.75;10.90;;;20.40;99.90;;;;;;5076907;28;20052;-62
2023/07/17 02:50:30;;;;;;;18.60;11.57;;;20.40;99.90;;;;;;5077040;28;20020;-62
2023/07/17 02:52:56;;;;;;;11.43;10.20;;;20.40;99.90;;;;;;5076785;28;20028;-61
2023/07/17 02:55:23;;;;;;;14.85;10.93;;;20.40;99.90;;;;;;5053869;28;20063;-62
2023/07/17 02:57:50;;;;;;;16.35;11.35;;;20.50;99.90;;;;;;5055318;28;20106;-62
2023/07/17 03:00:17;;;;;;;15.57;11.38;;;20.40;99.90;;;;;;5038921;28;20053;-62
2023/07/17 03:02:44;;;;;;;15.57;10.90;;;20.40;99.90;;;;;;5056701;28;20048;-62
2023/07/17 03:05:11;;;;;;;13.32;10.88;;;20.40;99.90;;;;;;5038750;28;20094;-62
2023/07/17 03:07:40;;;;;;;17.55;10.48;;;20.40;99.90;;;;;;5038858;28;20090;-63
2023/07/17 03:10:07;;;;;;;15.55;11.20;;;20.40;99.90;;;;;;5038383;28;20033;-62
2023/07/17 03:12:33;;;;;;;14.00;10.82;;;20.40;99.90;;;;;;5056515;28;20051;-62
2023/07/17 03:15:00;;;;;;;13.18;10.35;;;20.40;99.90;;;;;;5038726;28;20129;-62
2023/07/17 03:17:26;;;;;;;15.00;11.02;;;20.40;99.90;;;;;;5038427;28;20132;-62
2023/07/17 03:19:52;;;;;;;13.40;11.13;;;20.40;99.90;;;;;;5056302;28;20099;-62
2023/07/17 03:22:18;;;;;;;18.55;12.43;;;20.40;99.90;;;;;;5056551;28;20053;-62
2023/07/17 03:24:44;;;;;;;14.15;10.98;;;20.40;99.90;;;;;;5056552;28;20032;-63
2023/07/17 03:27:10;;;;;;;13.05;10.35;;;20.30;99.90;;;;;;5038394;28;20086;-62
2023/07/17 03:29:36;;;;;;;16.90;11.35;;;20.40;99.90;;;;;;5056224;28;20487;-62
2023/07/17 03:32:03;;;;;;;18.77;11.73;;;20.30;99.90;;;;;;5056127;28;20039;-62
2023/07/17 03:34:29;;;;;;;13.35;11.45;;;20.30;99.90;;;;;;5038381;28;20029;-62
2023/07/17 03:36:55;;;;;;;14.90;11.20;;;20.30;99.90;;;;;;5056203;28;20078;-62
2023/07/17 03:39:21;;;;;;;15.90;11.27;;;20.30;99.90;;;;;;5055895;28;20036;-63
2023/07/17 03:41:46;;;;;;;15.30;11.43;;;20.40;99.90;;;;;;5055951;28;20029;-62
2023/07/17 03:44:12;;;;;;;19.23;11.30;;;20.30;99.90;;;;;;5038026;28;20017;-62
2023/07/17 03:46:40;;;;;;;16.95;11.88;;;20.40;99.90;;;;;;5037988;28;20199;-62
2023/07/17 03:49:06;;;;;;;16.27;12.35;;;20.30;99.90;;;;;;5037901;28;20103;-62
2023/07/17 03:51:32;;;;;;;15.80;12.07;;;20.30;99.90;;;;;;5037839;28;20491;-63
2023/07/17 03:53:59;;;;;;;14.43;11.32;;;20.40;99.90;;;;;;5037949;28;20060;-63
2023/07/17 03:56:26;;;;;;;14.70;11.15;;;20.40;99.90;;;;;;5069125;28;20036;-62
2023/07/17 03:58:52;;;;;;;18.50;12.00;;;20.40;99.90;;;;;;5075449;28;20131;-62
2023/07/17 04:01:18;;;;;;;17.25;11.68;;;20.50;99.90;;;;;;5057516;28;20032;-62
2023/07/17 04:03:47;;;;;;;14.65;12.02;;;20.50;99.90;;;;;;5057540;28;20032;-63
2023/07/17 04:06:13;;;;;;;14.68;11.75;;;20.50;99.90;;;;;;5075515;28;20020;-62
2023/07/17 04:08:39;;;;;;;14.73;11.10;;;20.60;99.90;;;;;;5057057;28;20028;-62
2023/07/17 04:11:05;;;;;;;14.60;11.13;;;20.60;99.90;;;;;;5040749;28;20544;-63
2023/07/17 04:13:31;;;;;;;18.58;11.68;;;20.70;99.90;;;;;;5057314;28;20037;-62
2023/07/17 04:16:01;;;;;;;16.73;12.68;;;20.70;99.90;;;;;;5057218;28;20485;-62
2023/07/17 04:18:28;;;;;;;16.55;11.93;;;20.80;99.90;;;;;;5040931;28;20028;-62
2023/07/17 04:20:54;;;;;;;15.70;11.52;;;20.80;99.90;;;;;;5057217;28;20557;-62
2023/07/17 04:23:20;;;;;;;15.18;11.98;;;20.90;99.90;;;;;;5057221;28;20493;-62
2023/07/17 04:25:51;;;;;;;24.05;13.18;;;20.90;99.90;;;;;;5057033;28;20032;-62
2023/07/17 04:28:19;;;;;;;20.73;12.43;;;21.00;99.90;;;;;;5057115;28;20440;-62
2023/07/17 04:30:45;;;;;;;19.40;12.48;;;21.00;99.90;;;;;;5056957;28;20025;-62
2023/07/17 04:33:12;;;;;;;16.38;12.32;;;21.10;99.90;;;;;;5057022;28;20090;-62
2023/07/17 04:35:39;;;;;;;18.42;12.43;;;21.20;99.90;;;;;;5056776;28;20024;-62
2023/07/17 04:38:06;;;;;;;15.25;12.20;;;21.30;99.90;;;;;;5056878;28;20237;-62
2023/07/17 04:40:33;;;;;;;20.60;12.15;;;21.40;99.90;;;;;;5056915;28;20561;-63
2023/07/17 04:43:00;;;;;;;19.38;12.80;;;21.50;99.90;;;;;;5057024;28;20056;-62
2023/07/17 04:45:27;;;;;;;15.90;12.68;;;21.50;99.90;;;;;;5056762;28;20432;-62
2023/07/17 04:47:54;;;;;;;19.65;12.48;;;21.60;99.90;;;;;;5056768;28;20032;-62
2023/07/17 04:50:25;;;;;;;15.23;12.05;;;21.70;99.90;;;;;;5056670;28;20436;-62
2023/07/17 04:52:52;;;;;;;18.45;13.48;;;21.70;99.90;;;;;;5074498;28;20048;-62
2023/07/17 04:55:18;;;;;;;15.60;12.85;;;21.80;99.90;;;;;;5052322;28;20025;-62
2023/07/17 04:57:44;;;;;;;17.77;12.85;;;21.90;99.90;;;;;;5036350;28;20064;-62
2023/07/17 05:00:11;;;;;;;22.33;12.98;;;22.00;99.90;;;;;;5054511;28;20025;-62
2023/07/17 05:02:37;;;;;;;18.58;12.80;;;22.10;99.90;;;;;;5036755;28;20036;-63
2023/07/17 05:05:04;;;;;;;25.20;14.40;;;22.10;99.90;;;;;;5036427;28;20449;-62
2023/07/17 05:07:31;;;;;;;20.25;13.57;;;22.20;99.90;;;;;;5036541;28;20082;-62
2023/07/17 05:09:57;;;;;;;26.25;15.77;;;22.30;99.90;;;;;;5054230;28;20110;-62
2023/07/17 05:12:23;;;;;;;21.50;13.63;;;22.50;99.90;;;;;;5036297;28;20033;-62
2023/07/17 05:14:51;;;;;;;21.30;13.50;;;22.60;99.90;;;;;;5036453;28;20033;-63
2023/07/17 05:17:18;;;;;;;25.52;13.07;;;22.70;99.90;;;;;;5036314;28;20036;-62
2023/07/17 05:19:44;;;;;;;23.25;14.65;;;22.80;99.90;;;;;;5036213;28;20075;-63
2023/07/17 05:22:11;;;;;;;21.27;14.02;;;22.90;99.90;;;;;;5036597;28;20116;-63
2023/07/17 05:24:38;;;;;;;26.02;14.18;;;23.00;99.90;;;;;;5036917;28;20108;-65
2023/07/17 05:27:05;;;;;;;28.05;13.88;;;23.00;99.90;;;;;;5064344;28;20097;-65
2023/07/17 05:29:32;;;;;;;29.75;15.48;;;23.10;99.90;;;;;;5075323;28;20032;-65
2023/07/17 05:31:59;;;;;;;29.15;15.38;;;23.30;99.90;;;;;;5066036;28;20370;-65
2023/07/17 05:34:25;;;;;;;29.25;12.95;;;23.40;99.90;;;;;;5087399;28;20025;-65
2023/07/17 05:36:51;;;;;;;31.67;14.32;;;23.50;99.90;;;;;;5055951;28;20583;-65
2023/07/17 05:39:17;;;;;;;33.70;14.43;;;23.50;99.90;;;;;;5074143;28;20031;-65
2023/07/17 05:41:43;;;;;;;25.02;13.02;;;23.60;99.90;;;;;;5055928;28;20028;-65
2023/07/17 05:44:09;;;;;;;23.75;13.70;;;23.70;99.90;;;;;;5055974;28;20032;-65
2023/07/17 05:46:35;;;;;;;24.77;14.32;;;23.90;99.90;;;;;;5039363;28;20028;-65
2023/07/17 05:49:01;;;;;;;23.25;13.45;;;24.00;99.90;;;;;;5055978;28;20090;-65
2023/07/17 05:51:27;;;;;;;21.35;13.75;;;24.10;99.90;;;;;;5052734;28;20058;-65
2023/07/17 05:53:53;;;;;;;20.83;13.20;;;24.30;99.90;;;;;;5073728;28;20091;-65
2023/07/17 05:56:19;;;;;;;23.27;13.82;;;24.30;99.90;;;;;;5061565;28;20028;-65
2023/07/17 05:58:45;;;;;;;27.65;14.48;;;24.40;99.90;;;;;;5045535;28;20514;-65
2023/07/17 06:01:11;;;;;;;23.45;14.13;;;24.50;99.90;;;;;;5035541;28;20111;-65
2023/07/17 06:03:37;;;;;;;24.67;13.68;;;24.50;99.90;;;;;;5064600;28;20122;-65
2023/07/17 06:06:03;;;;;;;23.45;14.20;;;24.70;99.90;;;;;;5089321;28;20033;-65
2023/07/17 06:08:30;;;;;;;28.33;15.00;;;24.80;99.90;;;;;;5073057;28;20557;-65
2023/07/17 06:10:56;;;;;;;28.67;14.88;;;24.90;99.90;;;;;;5072941;28;20032;-65
2023/07/17 06:13:22;;;;;;;27.02;14.23;;;25.10;99.90;;;;;;5073201;28;20033;-65
2023/07/17 06:15:48;;;;;;;23.20;13.70;;;25.20;99.90;;;;;;5072936;28;20033;-65
2023/07/17 06:18:14;;;;;;;31.85;15.00;;;25.30;99.90;;;;;;5073074;28;20024;-65
2023/07/17 06:20:40;;;;;;;28.15;15.00;;;25.50;99.90;;;;;;5072995;28;20044;-65
2023/07/17 06:23:06;;;;;;;23.52;13.63;;;25.60;99.90;;;;;;5054183;28;20111;-65
2023/07/17 06:25:31;;;;;;;30.77;13.35;;;25.80;99.90;;;;;;5067374;28;20033;-65
2023/07/17 06:27:57;;;;;;;22.88;13.43;;;25.90;99.90;;;;;;5050409;28;20386;-65
2023/07/17 06:30:24;;;;;;;23.27;14.63;;;26.00;99.90;;;;;;5069923;28;20033;-65
2023/07/17 06:32:50;;;;;;;27.75;14.27;;;26.00;99.90;;;;;;5062689;28;20032;-65
2023/07/17 06:35:16;;;;;;;19.02;12.63;;;26.20;99.90;;;;;;5079439;28;20029;-65
2023/07/17 06:37:42;;;;;;;21.73;12.15;;;26.30;99.90;;;;;;5074968;28;20472;-65
2023/07/17 06:40:10;;;;;;;18.60;12.23;;;26.50;99.90;;;;;;5076869;28;20099;-65
2023/07/17 06:42:37;;;;;;;20.15;12.23;;;26.60;99.90;;;;;;5059165;28;20036;-65
2023/07/17 06:45:03;;;;;;;17.83;13.18;;;26.80;99.90;;;;;;5077279;28;20429;-65
2023/07/17 06:47:29;;;;;;;23.73;12.25;;;26.90;99.90;;;;;;5077433;28;20367;-65
2023/07/17 06:49:54;;;;;;;17.52;11.52;;;27.10;99.90;;;;;;5059360;28;20086;-65
2023/07/17 06:52:20;;;;;;;28.40;13.05;;;27.20;99.90;;;;;;5075698;28;20381;-65
2023/07/17 06:54:46;;;;;;;21.65;12.85;;;27.30;99.90;;;;;;5077356;28;20063;-65
2023/07/17 06:57:12;;;;;;;25.00;12.73;;;27.50;99.90;;;;;;5057960;28;20028;-65
2023/07/17 06:59:38;;;;;;;19.55;11.07;;;27.70;99.90;;;;;;5068105;28;20112;-65
2023/07/17 07:02:04;;;;;;;16.05;11.73;;;27.90;99.90;;;;;;5068003;28;20017;-65
2023/07/17 07:04:30;;;;;;;25.20;11.98;;;28.20;99.90;;;;;;5070725;28;20390;-65
2023/07/17 07:06:56;;;;;;;17.38;11.05;;;28.30;99.20;;;;;;5060995;28;20021;-66
2023/07/17 07:09:22;;;;;;;23.05;12.20;;;28.40;99.90;;;;;;5045194;28;20623;-66
2023/07/17 07:11:48;;;;;;;16.20;10.75;;;28.70;99.90;;;;;;5072647;28;20539;-66
2023/07/17 07:14:17;;;;;;;21.15;11.38;;;28.90;97.10;;;;;;5070610;28;20024;-65
2023/07/17 07:16:50;;;;;;;;;;;29.00;97.10;;;;;;5056171;28;20032;-66
2023/07/17 07:19:16;;;;;;;14.73;11.38;;;29.40;96.60;;;;;;5055637;28;19963;-66
2023/07/17 07:21:43;;;;;;;22.83;13.23;;;29.50;96.20;;;;;;5059074;28;20032;-65
2023/07/17 07:24:32;;;;;;;20.00;11.98;;;29.80;95.00;;;;;;5062749;28;20106;-65
2023/07/17 07:26:58;;;;;;;16.38;12.48;;;30.10;95.80;;;;;;5070972;28;20120;-66
2023/07/17 07:29:24;;;;;;;20.85;11.52;;;30.40;93.40;;;;;;5095436;28;20064;-66
2023/07/17 07:31:50;;;;;;;25.65;12.73;;;30.60;93.40;;;;;;5056420;28;20037;-65
2023/07/17 07:34:16;;;;;;;22.17;13.00;;;31.00;92.20;;;;;;5065525;28;20040;-66
2023/07/17 07:36:42;;;;;;;20.10;12.85;;;31.40;91.00;;;;;;5068660;28;20119;-65
2023/07/17 07:39:08;;;;;;;26.00;15.13;;;31.70;88.80;;;;;;5057971;28;20020;-65
2023/07/17 07:41:35;;;;;;;25.80;12.90;;;31.90;87.90;;;;;;5075362;28;20113;-66
2023/07/17 07:44:02;;;;;;;22.33;13.57;;;32.20;83.40;;;;;;5074933;28;20097;-65
2023/07/17 07:46:31;;;;;;;22.23;13.65;;;32.50;83.80;;;;;;5075574;28;20021;-65
2023/07/17 07:48:57;;;;;;;19.58;13.38;;;32.80;81.40;;;;;;5075068;28;20028;-63
2023/07/17 07:51:23;;;;;;;21.25;12.73;;;32.80;77.10;;;;;;5075843;28;20044;-63
2023/07/17 07:53:49;;;;;;;22.52;11.88;;;33.00;76.30;;;;;;5074048;28;20028;-62
2023/07/17 07:56:15;;;;;;;24.23;12.20;;;33.20;73.60;;;;;;5058039;28;20047;-63
2023/07/17 07:58:41;;;;;;;19.48;11.57;;;33.40;77.20;;;;;;5075468;28;20044;-63
2023/07/17 08:01:07;;;;;;;15.90;11.00;;;33.60;71.40;;;;;;5075095;28;20029;-63
2023/07/17 08:03:34;;;;;;;21.05;10.95;;;33.80;69.70;;;;;;5075893;28;20035;-63
2023/07/17 08:06:00;;;;;;;31.73;12.48;;;33.60;66.10;;;;;;5067768;28;20063;-63
2023/07/17 08:08:26;;;;;;;25.33;11.02;;;33.90;73.40;;;;;;5070091;28;20048;-63
2023/07/17 08:10:53;;;;;;;17.95;10.90;;;34.20;64.00;;;;;;5095698;28;20048;-62
2023/07/17 08:13:20;;;;;;;23.30;9.15;;;34.20;63.60;;;;;;5095751;28;20020;-63
2023/07/17 08:15:46;;;;;;;18.65;9.68;;;34.30;61.30;;;;;;5071368;28;20124;-63
2023/07/17 08:18:12;;;;;;;21.42;10.00;;;34.60;62.40;;;;;;5055388;28;20421;-62
2023/07/17 08:20:38;;;;;;;24.40;10.05;;;34.80;60.60;;;;;;5055408;28;20075;-63
2023/07/17 08:23:08;;;;;;;23.05;10.32;;;35.20;59.20;;;;;;5055442;28;20056;-62
2023/07/17 08:25:36;;;;;;;25.20;10.65;;;35.40;61.30;;;;;;5076490;28;20054;-62
2023/07/17 08:28:02;;;;;;;23.13;10.00;;;35.30;59.00;;;;;;5069505;28;20027;-63
2023/07/17 08:30:30;;;;;;;20.10;10.88;;;35.70;58.10;;;;;;5095335;28;20430;-63
2023/07/17 08:32:56;;;;;;;20.08;9.63;;;35.90;56.10;;;;;;5087332;28;20036;-63
2023/07/17 08:35:22;;;;;;;20.25;9.85;;;35.90;53.90;;;;;;5075116;28;20033;-63
2023/07/17 08:37:48;;;;;;;22.92;9.45;;;35.90;54.40;;;;;;5075266;28;20028;-62
2023/07/17 08:40:14;;;;;;;18.80;8.68;;;36.00;54.70;;;;;;5075508;28;20025;-62
2023/07/17 08:42:45;;;;;;;19.52;8.93;;;36.40;51.20;;;;;;5075166;28;20016;-62
2023/07/17 08:45:14;;;;;;;20.20;7.93;;;36.60;49.10;;;;;;5073494;28;20036;-63
2023/07/17 08:47:40;;;;;;;16.45;8.45;;;36.50;49.20;;;;;;5075331;28;20029;-63
2023/07/17 08:50:07;;;;;;;12.60;8.02;;;36.90;46.80;;;;;;5056985;28;20062;-63
2023/07/17 08:52:33;;;;;;;16.42;8.07;;;37.30;44.70;;;;;;5075014;28;20063;-62
2023/07/17 08:54:59;;;;;;;21.73;7.72;;;37.30;44.60;;;;;;5073929;28;20047;-62
2023/07/17 08:57:26;;;;;;;16.88;7.97;;;37.50;42.80;;;;;;5074661;28;20052;-62
2023/07/17 08:59:54;;;;;;;19.17;9.07;;;37.80;42.50;;;;;;5074956;28;20029;-62
2023/07/17 09:02:20;;;;;;;25.98;9.10;;;37.60;44.90;;;;;;5075162;28;20029;-62
2023/07/17 09:04:46;;;;;;;17.55;8.90;;;37.70;44.80;;;;;;5074859;28;20029;-62
2023/07/17 09:07:12;;;;;;;19.80;8.88;;;37.70;46.90;;;;;;5074808;28;20036;-62
2023/07/17 09:09:38;;;;;;;16.10;9.02;;;38.10;47.60;;;;;;5074572;28;20119;-62
2023/07/17 09:12:11;;;;;;;15.20;8.68;;;38.20;46.80;;;;;;5074841;28;20032;-62
2023/07/17 09:14:38;;;;;;;18.42;8.73;;;38.30;43.80;;;;;;5075156;28;20059;-62
2023/07/17 09:17:07;;;;;;;21.60;8.43;;;38.30;41.60;;;;;;5074826;28;20025;-62
2023/07/17 09:19:34;;;;;;;15.73;8.80;;;38.60;43.80;;;;;;5074887;28;20056;-63
2023/07/17 09:22:05;;;;;;;23.20;9.02;;;38.50;41.70;;;;;;5074405;28;20032;-62
2023/07/17 09:24:36;;;;;;;14.98;8.10;;;38.80;44.60;;;;;;5072803;28;20012;-62
2023/07/17 09:27:06;;;;;;;23.45;9.45;;;38.70;45.30;;;;;;5074264;28;20037;-62
2023/07/17 09:29:32;;;;;;;17.70;8.93;;;38.40;39.90;;;;;;5072349;28;20545;-63
2023/07/17 09:32:18;;;;;;;20.40;9.13;;;38.20;39.60;;;;;;5065718;28;20103;-62
2023/07/17 09:35:04;;;;;;;15.93;7.93;;;38.80;41.20;;;;;;5053980;28;20025;-63
2023/07/17 09:37:31;;;;;;;19.35;8.23;;;39.30;39.20;;;;;;5087531;28;20039;-62
2023/07/17 09:40:07;;;;;;;15.30;8.30;;;39.30;42.20;;;;;;5068842;28;20479;-63
2023/07/17 09:42:34;;;;;;;13.23;7.35;;;39.30;40.70;;;;;;5065670;28;20107;-62
2023/07/17 09:45:01;;;;;;;13.02;7.22;;;39.70;37.00;;;;;;5065716;28;20063;-63
2023/07/17 09:47:27;;;;;;;9.75;7.43;;;40.00;37.60;;;;;;5053942;28;20033;-62
2023/07/17 09:49:56;;;;;;;14.90;8.02;;;39.60;35.90;;;;;;5054623;28;20033;-62
2023/07/17 09:52:23;;;;;;;12.68;7.15;;;39.70;36.50;;;;;;5073305;28;20033;-63
2023/07/17 09:54:51;;;;;;;11.73;6.78;;;40.00;37.00;;;;;;5073538;28;20082;-62
2023/07/17 09:57:34;;;;;;;10.20;6.75;;;40.40;35.20;;;;;;5070797;28;20351;-63
2023/07/17 10:00:17;;;;;;;13.85;7.13;;;40.50;38.30;;;;;;5065315;28;20028;-63
2023/07/17 10:02:53;;;;;;;11.30;7.78;;;40.80;35.60;;;;;;5061018;28;20073;-63
2023/07/17 10:05:20;;;;;;;9.65;6.82;;;40.80;38.40;;;;;;5065385;28;20028;-63
2023/07/17 10:07:48;;;;;;;10.52;6.30;;;41.00;37.80;;;;;;5077602;28;20024;-63
2023/07/17 10:10:14;;;;;;;8.38;6.82;;;40.70;31.20;;;;;;5077270;28;20028;-63
2023/07/17 10:12:41;;;;;;;11.68;6.65;;;40.20;34.00;;;;;;5077513;28;20032;-63
2023/07/17 10:15:09;;;;;;;13.27;6.15;;;40.10;35.70;;;;;;5076472;28;20033;-62
2023/07/17 10:17:35;;;;;;;11.30;6.65;;;40.10;30.90;;;;;;5075637;28;20020;-62
2023/07/17 10:20:07;;;;;;;11.57;7.07;;;40.70;30.60;;;;;;5059181;28;20085;-62
2023/07/17 10:22:33;;;;;;;14.55;7.00;;;40.50;30.70;;;;;;5077087;28;20027;-62
2023/07/17 10:25:21;;;;;;;8.88;6.35;;;40.80;32.50;;;;;;5077332;28;20028;-63
2023/07/17 10:27:57;;;;;;;11.05;6.63;;;40.50;34.40;;;;;;5059272;28;20053;-63
2023/07/17 10:30:37;;;;;;;13.35;7.28;;;40.30;33.80;;;;;;5076898;28;20370;-63
2023/07/17 10:33:05;;;;;;;9.30;7.10;;;40.10;30.10;;;;;;5076590;28;20016;-63
2023/07/17 10:36:00;;;;;;;14.30;6.72;;;40.00;32.20;;;;;;5076215;28;20047;-63
2023/07/17 10:38:34;;;;;;;10.18;6.03;;;40.50;34.60;;;;;;5073538;28;20471;-63
2023/07/17 10:41:11;;;;;;;8.75;6.03;;;41.10;34.10;;;;;;5070461;28;20025;-63
2023/07/17 10:43:48;;;;;;;7.93;5.75;;;41.00;31.20;;;;;;5076962;28;20457;-63
2023/07/17 10:46:14;;;;;;;10.50;6.05;;;41.30;31.50;;;;;;5076903;28;20056;-62
2023/07/17 10:48:40;;;;;;;9.98;6.28;;;41.60;29.60;;;;;;5076869;28;20029;-63
2023/07/17 10:51:07;;;;;;;13.52;7.43;;;41.80;28.60;;;;;;5075829;28;20072;-63
2023/07/17 10:53:33;;;;;;;14.95;7.60;;;41.70;29.30;;;;;;5076878;28;20375;-63
2023/07/17 10:55:59;;;;;;;10.75;6.15;;;41.40;28.90;;;;;;5058753;28;20040;-63
2023/07/17 10:58:25;;;;;;;9.70;6.18;;;41.60;31.30;;;;;;5076503;28;20041;-63
2023/07/17 11:00:51;;;;;;;9.70;6.03;;;41.60;29.80;;;;;;5056728;28;20033;-63
2023/07/17 11:03:22;;;;;;;9.05;5.80;;;41.70;32.70;;;;;;5057220;28;20025;-63
2023/07/17 11:05:52;;;;;;;13.73;6.65;;;41.40;30.30;;;;;;5076685;28;20086;-63
2023/07/17 11:08:22;;;;;;;9.32;5.95;;;41.10;29.20;;;;;;5077004;28;20031;-63
2023/07/17 11:10:48;;;;;;;;;;;40.70;28.70;;;;;;5076913;28;20036;-63
2023/07/17 11:13:13;;;;;;;10.55;6.88;;;41.00;30.30;;;;;;5077062;28;19950;-63
2023/07/17 11:15:39;;;;;;;9.65;6.85;;;41.60;31.20;;;;;;5076509;28;20090;-63
2023/07/17 11:18:09;;;;;;;8.57;6.43;;;41.90;29.90;;;;;;5075484;28;20031;-63
2023/07/17 11:20:43;;;;;;;9.27;6.40;;;42.00;29.90;;;;;;5076261;28;20358;-63
2023/07/17 11:23:16;;;;;;;14.23;7.22;;;42.40;29.40;;;;;;5075312;28;20082;-63
2023/07/17 11:25:42;;;;;;;13.23;7.38;;;42.40;27.10;;;;;;5057990;28;20493;-63
2023/07/17 11:28:10;;;;;;;11.90;7.63;;;42.20;28.10;;;;;;5076204;28;20090;-63
2023/07/17 11:30:36;;;;;;;10.02;8.25;;;41.80;28.30;;;;;;5075640;28;20089;-63
2023/07/17 11:33:05;;;;;;;19.60;8.88;;;41.30;28.40;;;;;;5075297;28;20111;-63
2023/07/17 11:35:42;;;;;;;20.27;10.80;;;41.70;30.00;;;;;;5066588;28;20025;-63
2023/07/17 11:38:10;;;;;;;21.98;10.60;;;41.50;27.70;;;;;;5063402;28;20060;-63
2023/07/17 11:41:01;;;;;;;23.88;10.85;;;41.20;26.50;;;;;;5070563;28;20032;-63
2023/07/17 11:43:37;;;;;;;22.15;10.20;;;41.40;29.40;;;;;;5055855;28;20087;-63
2023/07/17 11:46:08;;;;;;;19.83;11.05;;;41.50;29.80;;;;;;5055525;28;20117;-63
2023/07/17 11:48:42;;;;;;;30.00;10.85;;;41.90;28.20;;;;;;5055508;28;20025;-63
2023/07/17 11:51:09;;;;;;;16.05;9.25;;;42.00;29.10;;;;;;5055391;28;20029;-63
2023/07/17 11:53:37;;;;;;;17.17;9.23;;;42.40;25.70;;;;;;5055514;28;20052;-63
2023/07/17 11:56:04;;;;;;;17.75;9.60;;;41.90;27.70;;;;;;5065856;28;20033;-63
2023/07/17 11:58:35;;;;;;;16.27;9.73;;;42.00;26.70;;;;;;5075051;28;20045;-63
2023/07/17 12:01:01;;;;;;;21.17;10.75;;;42.40;27.50;;;;;;5075342;28;20040;-63
2023/07/17 12:03:27;;;;;;;19.42;9.85;;;42.30;27.00;;;;;;5075506;28;20032;-63
2023/07/17 12:05:53;;;;;;;14.48;9.25;;;42.00;26.60;;;;;;5075015;28;20020;-63
2023/07/17 12:08:19;;;;;;;15.45;9.50;;;42.00;28.20;;;;;;5075391;28;20039;-63
2023/07/17 12:10:46;;;;;;;18.40;8.95;;;41.90;31.70;;;;;;5075028;28;20478;-63
2023/07/17 12:13:12;;;;;;;12.88;8.25;;;42.20;30.40;;;;;;5073893;28;20747;-63
2023/07/17 12:15:39;;;;;;;15.70;8.38;;;42.50;28.10;;;;;;5075032;28;20028;-63
2023/07/17 12:18:05;;;;;;;17.23;8.70;;;42.30;31.40;;;;;;5075073;28;20059;-63
2023/07/17 12:20:32;;;;;;;17.02;8.05;;;41.60;26.70;;;;;;5069703;28;20020;-63
2023/07/17 12:22:59;;;;;;;20.08;7.88;;;42.30;29.30;;;;;;5072827;28;21850;-63
2023/07/17 12:25:25;;;;;;;19.50;8.73;;;42.50;25.00;;;;;;5065263;28;20090;-63
2023/07/17 12:27:51;;;;;;;12.98;7.35;;;42.80;28.10;;;;;;5054460;28;20028;-63
2023/07/17 12:30:22;;;;;;;12.32;6.90;;;42.10;28.50;;;;;;5082182;28;20039;-63
2023/07/17 12:32:49;;;;;;;16.20;7.65;;;42.00;26.00;;;;;;5057531;28;20482;-63